Aviation Digital Data Service (ADDS)

Output produced by METARs form (0123 UTC 23 July 2017)
found at http://www.aviationweather.gov/adds/metars/
 
VYMD 230030Z 1100KT 6000 BKN015 FEW018CB OVC080 25/25 Q1004
TAF VYMD 222300Z 2300/2324 13008KT 6000 BKN015 FEW018CB BKN100 
     TEMPO 2300/2306 17008G17KT 4000 -TSRA BKN012 FEW015CB OVC090
       
VYYY 230100Z 16004KT 5000 -RA BKN012 FEW016CB OVC090 25/24 Q1009
TAF VYYY 222300Z 2300/2324 23006KT 7000 BKN012 FEW018CB OVC090 
     TEMPO 2300/2306 21008G18KT 3000 RA BKN010 FEW016CB OVC090 
     TEMPO 2306/2312 23010G20KT 2000 +RA BKN010 FEW015CB OVC080